sensor_id;sensor_type;location;lat;lon;timestamp;pressure;altitude;pressure_sealevel;temperature
28803;BMP280;15949;55.656;37.422;2023-01-10T00:01:29;101320.81;;;-18.32
28803;BMP280;15949;55.656;37.422;2023-01-10T00:06:35;101324.72;;;-18.28
28803;BMP280;15949;55.656;37.422;2023-01-10T00:11:41;101326.41;;;-18.28
28803;BMP280;15949;55.656;37.422;2023-01-10T00:17:05;101312.66;;;-18.19
28803;BMP280;15949;55.656;37.422;2023-01-10T00:22:11;101310.03;;;-18.16
28803;BMP280;15949;55.656;37.422;2023-01-10T00:27:16;101310.75;;;-18.14
28803;BMP280;15949;55.656;37.422;2023-01-10T00:32:26;101313.06;;;-18.11
28803;BMP280;15949;55.656;37.422;2023-01-10T00:37:32;101298.75;;;-18.08
28803;BMP280;15949;55.656;37.422;2023-01-10T00:42:38;101307.00;;;-18.07
28803;BMP280;15949;55.656;37.422;2023-01-10T00:48:02;101294.94;;;-18.13
28803;BMP280;15949;55.656;37.422;2023-01-10T00:53:08;101279.66;;;-18.07
28803;BMP280;15949;55.656;37.422;2023-01-10T00:58:14;101276.09;;;-18.03
28803;BMP280;15949;55.656;37.422;2023-01-10T01:03:20;101270.81;;;-17.97
28803;BMP280;15949;55.656;37.422;2023-01-10T01:08:27;101261.09;;;-18.02
28803;BMP280;15949;55.656;37.422;2023-01-10T01:13:33;101259.38;;;-17.85
28803;BMP280;15949;55.656;37.422;2023-01-10T01:18:38;101249.16;;;-17.81
28803;BMP280;15949;55.656;37.422;2023-01-10T01:23:44;101270.56;;;-17.78
28803;BMP280;15949;55.656;37.422;2023-01-10T01:28:49;101261.88;;;-17.71
28803;BMP280;15949;55.656;37.422;2023-01-10T01:33:55;101268.53;;;-17.72
28803;BMP280;15949;55.656;37.422;2023-01-10T01:39:00;101268.78;;;-17.76
28803;BMP280;15949;55.656;37.422;2023-01-10T01:44:16;101266.94;;;-17.73
28803;BMP280;15949;55.656;37.422;2023-01-10T01:49:23;101260.28;;;-17.72
28803;BMP280;15949;55.656;37.422;2023-01-10T01:54:30;101258.41;;;-17.69
28803;BMP280;15949;55.656;37.422;2023-01-10T01:59:39;101257.69;;;-17.71
28803;BMP280;15949;55.656;37.422;2023-01-10T02:05:07;101262.13;;;-17.76
28803;BMP280;15949;55.656;37.422;2023-01-10T02:10:37;101255.63;;;-17.78
28803;BMP280;15949;55.656;37.422;2023-01-10T02:15:45;101255.22;;;-17.71
28803;BMP280;15949;55.656;37.422;2023-01-10T02:37:15;101265.72;;;-17.51
28803;BMP280;15949;55.656;37.422;2023-01-10T02:42:49;101254.75;;;-17.49
28803;BMP280;15949;55.656;37.422;2023-01-10T02:47:56;101263.16;;;-17.36
28803;BMP280;15949;55.656;37.422;2023-01-10T02:53:06;101260.19;;;-17.28
28803;BMP280;15949;55.656;37.422;2023-01-10T03:10:06;101263.75;;;-17.32
28803;BMP280;15949;55.656;37.422;2023-01-10T03:15:17;101268.56;;;-17.29
28803;BMP280;15949;55.656;37.422;2023-01-10T03:20:24;101261.25;;;-17.32
28803;BMP280;15949;55.656;37.422;2023-01-10T03:25:34;101255.38;;;-17.17
28803;BMP280;15949;55.656;37.422;2023-01-10T03:30:48;101255.72;;;-17.09
28803;BMP280;15949;55.656;37.422;2023-01-10T03:41:52;101260.94;;;-16.99
28803;BMP280;15949;55.656;37.422;2023-01-10T03:52:17;101292.72;;;-16.89
28803;BMP280;15949;55.656;37.422;2023-01-10T03:57:23;101291.72;;;-16.86
28803;BMP280;15949;55.656;37.422;2023-01-10T04:02:30;101293.44;;;-16.87
28803;BMP280;15949;55.656;37.422;2023-01-10T04:07:36;101301.69;;;-16.86
28803;BMP280;15949;55.656;37.422;2023-01-10T04:12:41;101291.56;;;-16.83
28803;BMP280;15949;55.656;37.422;2023-01-10T04:17:47;101290.31;;;-16.63
28803;BMP280;15949;55.656;37.422;2023-01-10T04:22:53;101304.03;;;-16.56
28803;BMP280;15949;55.656;37.422;2023-01-10T04:27:59;101295.47;;;-16.52
28803;BMP280;15949;55.656;37.422;2023-01-10T04:33:04;101295.25;;;-16.49
28803;BMP280;15949;55.656;37.422;2023-01-10T04:38:11;101309.22;;;-16.46
28803;BMP280;15949;55.656;37.422;2023-01-10T04:43:17;101306.88;;;-16.35
28803;BMP280;15949;55.656;37.422;2023-01-10T04:48:22;101314.50;;;-16.24
28803;BMP280;15949;55.656;37.422;2023-01-10T04:53:28;101313.47;;;-16.22
28803;BMP280;15949;55.656;37.422;2023-01-10T04:58:35;101319.88;;;-16.18
28803;BMP280;15949;55.656;37.422;2023-01-10T05:03:41;101304.31;;;-16.08
28803;BMP280;15949;55.656;37.422;2023-01-10T05:08:46;101318.91;;;-16.02
28803;BMP280;15949;55.656;37.422;2023-01-10T05:13:52;101327.44;;;-15.92
28803;BMP280;15949;55.656;37.422;2023-01-10T05:18:58;101339.25;;;-15.82
28803;BMP280;15949;55.656;37.422;2023-01-10T05:24:03;101353.22;;;-15.79
28803;BMP280;15949;55.656;37.422;2023-01-10T05:29:12;101367.31;;;-15.78
28803;BMP280;15949;55.656;37.422;2023-01-10T05:34:18;101366.63;;;-15.67
28803;BMP280;15949;55.656;37.422;2023-01-10T05:39:24;101376.22;;;-15.61
28803;BMP280;15949;55.656;37.422;2023-01-10T05:44:29;101378.22;;;-15.54
28803;BMP280;15949;55.656;37.422;2023-01-10T05:49:35;101379.59;;;-15.50
28803;BMP280;15949;55.656;37.422;2023-01-10T05:54:41;101383.94;;;-15.52
28803;BMP280;15949;55.656;37.422;2023-01-10T05:59:46;101378.50;;;-15.46
28803;BMP280;15949;55.656;37.422;2023-01-10T06:04:52;101395.63;;;-15.39
28803;BMP280;15949;55.656;37.422;2023-01-10T06:09:59;101390.13;;;-15.45
28803;BMP280;15949;55.656;37.422;2023-01-10T06:15:06;101406.13;;;-15.34
28803;BMP280;15949;55.656;37.422;2023-01-10T06:20:12;101410.91;;;-15.31
28803;BMP280;15949;55.656;37.422;2023-01-10T06:25:18;101415.31;;;-15.22
28803;BMP280;15949;55.656;37.422;2023-01-10T06:30:23;101428.13;;;-15.14
28803;BMP280;15949;55.656;37.422;2023-01-10T06:35:29;101435.41;;;-14.98
28803;BMP280;15949;55.656;37.422;2023-01-10T06:40:35;101411.88;;;-14.83
28803;BMP280;15949;55.656;37.422;2023-01-10T06:45:41;101411.66;;;-14.80
28803;BMP280;15949;55.656;37.422;2023-01-10T06:50:48;101413.63;;;-14.73
28803;BMP280;15949;55.656;37.422;2023-01-10T06:55:54;101443.53;;;-14.58
28803;BMP280;15949;55.656;37.422;2023-01-10T07:01:01;101433.13;;;-14.52
28803;BMP280;15949;55.656;37.422;2023-01-10T07:06:07;101430.63;;;-14.52
28803;BMP280;15949;55.656;37.422;2023-01-10T07:11:16;101436.59;;;-14.42
28803;BMP280;15949;55.656;37.422;2023-01-10T07:16:22;101432.84;;;-14.37
28803;BMP280;15949;55.656;37.422;2023-01-10T07:21:27;101420.13;;;-14.21
28803;BMP280;15949;55.656;37.422;2023-01-10T07:26:33;101427.94;;;-14.14
28803;BMP280;15949;55.656;37.422;2023-01-10T07:31:39;101435.84;;;-14.08
28803;BMP280;15949;55.656;37.422;2023-01-10T07:36:44;101439.34;;;-13.97
28803;BMP280;15949;55.656;37.422;2023-01-10T07:41:50;101436.19;;;-13.88
28803;BMP280;15949;55.656;37.422;2023-01-10T07:46:57;101445.75;;;-13.82
28803;BMP280;15949;55.656;37.422;2023-01-10T07:52:02;101445.16;;;-13.86
28803;BMP280;15949;55.656;37.422;2023-01-10T07:57:09;101438.25;;;-13.71
28803;BMP280;15949;55.656;37.422;2023-01-10T08:02:15;101454.25;;;-13.61
28803;BMP280;15949;55.656;37.422;2023-01-10T08:07:20;101460.75;;;-13.47
28803;BMP280;15949;55.656;37.422;2023-01-10T08:12:26;101451.66;;;-13.37
28803;BMP280;15949;55.656;37.422;2023-01-10T08:17:33;101446.09;;;-13.18
28803;BMP280;15949;55.656;37.422;2023-01-10T08:22:38;101451.69;;;-13.04
28803;BMP280;15949;55.656;37.422;2023-01-10T08:27:44;101454.31;;;-12.94
28803;BMP280;15949;55.656;37.422;2023-01-10T08:32:49;101453.03;;;-12.89
28803;BMP280;15949;55.656;37.422;2023-01-10T08:37:59;101448.38;;;-12.82
28803;BMP280;15949;55.656;37.422;2023-01-10T08:43:07;101449.03;;;-12.69
28803;BMP280;15949;55.656;37.422;2023-01-10T08:48:13;101445.63;;;-12.68
28803;BMP280;15949;55.656;37.422;2023-01-10T08:53:19;101440.13;;;-12.62
28803;BMP280;15949;55.656;37.422;2023-01-10T08:58:25;101439.91;;;-12.59
28803;BMP280;15949;55.656;37.422;2023-01-10T09:03:30;101434.88;;;-12.59
28803;BMP280;15949;55.656;37.422;2023-01-10T09:08:36;101438.13;;;-12.47
28803;BMP280;15949;55.656;37.422;2023-01-10T09:13:42;101428.53;;;-12.31
28803;BMP280;15949;55.656;37.422;2023-01-10T09:18:48;101429.44;;;-12.32
28803;BMP280;15949;55.656;37.422;2023-01-10T09:23:53;101432.75;;;-12.31
28803;BMP280;15949;55.656;37.422;2023-01-10T09:28:59;101425.63;;;-12.26
28803;BMP280;15949;55.656;37.422;2023-01-10T09:34:05;101423.00;;;-12.25
28803;BMP280;15949;55.656;37.422;2023-01-10T09:39:10;101431.84;;;-12.30
28803;BMP280;15949;55.656;37.422;2023-01-10T09:55:35;101427.38;;;-12.06
28803;BMP280;15949;55.656;37.422;2023-01-10T10:01:05;101424.41;;;-12.11
28803;BMP280;15949;55.656;37.422;2023-01-10T10:06:13;101427.38;;;-12.06
28803;BMP280;15949;55.656;37.422;2023-01-10T10:22:29;101431.56;;;-11.95
28803;BMP280;15949;55.656;37.422;2023-01-10T10:38:50;101406.13;;;-11.81
28803;BMP280;15949;55.656;37.422;2023-01-10T10:43:58;101415.13;;;-11.79
28803;BMP280;15949;55.656;37.422;2023-01-10T10:49:31;101421.94;;;-11.69
28803;BMP280;15949;55.656;37.422;2023-01-10T10:54:37;101405.88;;;-11.78
28803;BMP280;15949;55.656;37.422;2023-01-10T10:59:46;101412.34;;;-11.76
28803;BMP280;15949;55.656;37.422;2023-01-10T11:04:56;101432.88;;;-11.70
28803;BMP280;15949;55.656;37.422;2023-01-10T11:10:09;101431.75;;;-11.87
28803;BMP280;15949;55.656;37.422;2023-01-10T11:15:37;101437.25;;;-11.72
28803;BMP280;15949;55.656;37.422;2023-01-10T11:20:47;101422.28;;;-11.74
28803;BMP280;15949;55.656;37.422;2023-01-10T11:25:53;101422.41;;;-11.76
28803;BMP280;15949;55.656;37.422;2023-01-10T11:30:59;101421.25;;;-11.71
28803;BMP280;15949;55.656;37.422;2023-01-10T11:36:08;101411.22;;;-11.62
28803;BMP280;15949;55.656;37.422;2023-01-10T11:46:23;101442.72;;;-11.67
28803;BMP280;15949;55.656;37.422;2023-01-10T11:51:38;101432.78;;;-11.69
28803;BMP280;15949;55.656;37.422;2023-01-10T12:02:12;101447.97;;;-11.70
28803;BMP280;15949;55.656;37.422;2023-01-10T12:07:20;101461.53;;;-11.83
28803;BMP280;15949;55.656;37.422;2023-01-10T12:12:26;101456.97;;;-11.89
28803;BMP280;15949;55.656;37.422;2023-01-10T12:17:34;101438.28;;;-11.75
28803;BMP280;15949;55.656;37.422;2023-01-10T12:22:44;101441.59;;;-11.74
28803;BMP280;15949;55.656;37.422;2023-01-10T12:27:52;101451.81;;;-11.76
28803;BMP280;15949;55.656;37.422;2023-01-10T12:33:06;101448.91;;;-11.92
28803;BMP280;15949;55.656;37.422;2023-01-10T12:38:24;101444.97;;;-12.06
28803;BMP280;15949;55.656;37.422;2023-01-10T12:43:50;101455.13;;;-12.07
28803;BMP280;15949;55.656;37.422;2023-01-10T12:54:26;101462.91;;;-12.10
28803;BMP280;15949;55.656;37.422;2023-01-10T12:59:39;101456.63;;;-12.16
28803;BMP280;15949;55.656;37.422;2023-01-10T13:04:50;101463.50;;;-12.18
28803;BMP280;15949;55.656;37.422;2023-01-10T13:09:57;101452.59;;;-12.28
28803;BMP280;15949;55.656;37.422;2023-01-10T13:25:30;101458.56;;;-12.40
28803;BMP280;15949;55.656;37.422;2023-01-10T13:30:38;101462.22;;;-12.44
28803;BMP280;15949;55.656;37.422;2023-01-10T13:35:47;101473.66;;;-12.40
28803;BMP280;15949;55.656;37.422;2023-01-10T13:41:03;101473.97;;;-12.45
28803;BMP280;15949;55.656;37.422;2023-01-10T13:51:21;101481.38;;;-12.43
28803;BMP280;15949;55.656;37.422;2023-01-10T13:56:33;101496.09;;;-12.39
28803;BMP280;15949;55.656;37.422;2023-01-10T14:01:39;101485.50;;;-12.31
28803;BMP280;15949;55.656;37.422;2023-01-10T14:07:30;101493.91;;;-12.21
28803;BMP280;15949;55.656;37.422;2023-01-10T14:12:48;101490.47;;;-12.20
28803;BMP280;15949;55.656;37.422;2023-01-10T14:18:38;101489.44;;;-12.18
28803;BMP280;15949;55.656;37.422;2023-01-10T14:23:42;101493.47;;;-12.26
28803;BMP280;15949;55.656;37.422;2023-01-10T14:28:52;101479.56;;;-12.30
28803;BMP280;15949;55.656;37.422;2023-01-10T14:33:58;101489.00;;;-12.23
28803;BMP280;15949;55.656;37.422;2023-01-10T14:39:06;101490.72;;;-12.23
28803;BMP280;15949;55.656;37.422;2023-01-10T14:44:18;101479.31;;;-12.27
28803;BMP280;15949;55.656;37.422;2023-01-10T14:49:27;101481.69;;;-12.26
28803;BMP280;15949;55.656;37.422;2023-01-10T14:54:33;101478.16;;;-12.23
28803;BMP280;15949;55.656;37.422;2023-01-10T14:59:39;101482.69;;;-12.17
28803;BMP280;15949;55.656;37.422;2023-01-10T15:10:33;101485.91;;;-12.26
28803;BMP280;15949;55.656;37.422;2023-01-10T15:15:39;101483.63;;;-12.29
28803;BMP280;15949;55.656;37.422;2023-01-10T15:20:46;101483.41;;;-12.26
28803;BMP280;15949;55.656;37.422;2023-01-10T15:26:01;101478.97;;;-12.23
28803;BMP280;15949;55.656;37.422;2023-01-10T15:31:07;101479.88;;;-12.24
28803;BMP280;15949;55.656;37.422;2023-01-10T15:36:17;101478.03;;;-12.22
28803;BMP280;15949;55.656;37.422;2023-01-10T15:41:25;101483.06;;;-12.22
28803;BMP280;15949;55.656;37.422;2023-01-10T15:46:31;101489.00;;;-12.34
28803;BMP280;15949;55.656;37.422;2023-01-10T15:51:38;101489.81;;;-12.33
28803;BMP280;15949;55.656;37.422;2023-01-10T15:56:47;101482.09;;;-12.41
28803;BMP280;15949;55.656;37.422;2023-01-10T16:07:35;101479.56;;;-12.41
28803;BMP280;15949;55.656;37.422;2023-01-10T16:12:46;101473.28;;;-12.36
28803;BMP280;15949;55.656;37.422;2023-01-10T16:18:10;101474.19;;;-12.37
28803;BMP280;15949;55.656;37.422;2023-01-10T16:23:27;101482.88;;;-12.41
28803;BMP280;15949;55.656;37.422;2023-01-10T16:28:34;101480.72;;;-12.45
28803;BMP280;15949;55.656;37.422;2023-01-10T16:33:41;101479.81;;;-12.44
28803;BMP280;15949;55.656;37.422;2023-01-10T16:38:47;101481.88;;;-12.49
28803;BMP280;15949;55.656;37.422;2023-01-10T16:43:52;101480.28;;;-12.50
28803;BMP280;15949;55.656;37.422;2023-01-10T16:48:58;101475.28;;;-12.62
28803;BMP280;15949;55.656;37.422;2023-01-10T16:54:04;101492.84;;;-12.62
28803;BMP280;15949;55.656;37.422;2023-01-10T16:59:11;101488.75;;;-12.63
28803;BMP280;15949;55.656;37.422;2023-01-10T17:04:21;101481.88;;;-12.61
28803;BMP280;15949;55.656;37.422;2023-01-10T17:09:28;101481.78;;;-12.59
28803;BMP280;15949;55.656;37.422;2023-01-10T17:14:35;101475.50;;;-12.65
28803;BMP280;15949;55.656;37.422;2023-01-10T17:19:41;101492.28;;;-12.65
28803;BMP280;15949;55.656;37.422;2023-01-10T17:24:48;101492.16;;;-12.64
28803;BMP280;15949;55.656;37.422;2023-01-10T17:29:54;101495.56;;;-12.65
28803;BMP280;15949;55.656;37.422;2023-01-10T17:35:00;101487.25;;;-12.54
28803;BMP280;15949;55.656;37.422;2023-01-10T17:40:06;101467.63;;;-12.49
28803;BMP280;15949;55.656;37.422;2023-01-10T17:45:11;101467.47;;;-12.47
28803;BMP280;15949;55.656;37.422;2023-01-10T17:50:17;101470.94;;;-12.48
28803;BMP280;15949;55.656;37.422;2023-01-10T17:55:23;101465.53;;;-12.44
28803;BMP280;15949;55.656;37.422;2023-01-10T18:00:29;101468.31;;;-12.58
28803;BMP280;15949;55.656;37.422;2023-01-10T18:05:34;101467.31;;;-12.67
28803;BMP280;15949;55.656;37.422;2023-01-10T18:10:40;101481.75;;;-12.70
28803;BMP280;15949;55.656;37.422;2023-01-10T18:15:47;101476.75;;;-12.70
28803;BMP280;15949;55.656;37.422;2023-01-10T18:20:55;101486.59;;;-12.67
28803;BMP280;15949;55.656;37.422;2023-01-10T18:26:03;101475.97;;;-12.71
28803;BMP280;15949;55.656;37.422;2023-01-10T18:31:16;101468.75;;;-12.64
28803;BMP280;15949;55.656;37.422;2023-01-10T18:36:23;101469.00;;;-12.67
28803;BMP280;15949;55.656;37.422;2023-01-10T18:41:29;101468.66;;;-12.63
28803;BMP280;15949;55.656;37.422;2023-01-10T18:46:35;101462.41;;;-12.68
28803;BMP280;15949;55.656;37.422;2023-01-10T18:51:40;101468.88;;;-12.66
28803;BMP280;15949;55.656;37.422;2023-01-10T18:56:46;101461.91;;;-12.62
28803;BMP280;15949;55.656;37.422;2023-01-10T19:01:51;101462.03;;;-12.64
28803;BMP280;15949;55.656;37.422;2023-01-10T19:06:57;101462.56;;;-12.60
28803;BMP280;15949;55.656;37.422;2023-01-10T19:12:03;101466.50;;;-12.67
28803;BMP280;15949;55.656;37.422;2023-01-10T19:17:08;101476.66;;;-12.58
28803;BMP280;15949;55.656;37.422;2023-01-10T19:22:14;101471.28;;;-12.64
28803;BMP280;15949;55.656;37.422;2023-01-10T19:27:19;101477.09;;;-12.64
28803;BMP280;15949;55.656;37.422;2023-01-10T19:32:25;101479.50;;;-12.62
28803;BMP280;15949;55.656;37.422;2023-01-10T19:37:31;101480.50;;;-12.65
28803;BMP280;15949;55.656;37.422;2023-01-10T19:42:37;101478.69;;;-12.63
28803;BMP280;15949;55.656;37.422;2023-01-10T19:47:43;101465.81;;;-12.58
28803;BMP280;15949;55.656;37.422;2023-01-10T19:52:48;101460.44;;;-12.65
28803;BMP280;15949;55.656;37.422;2023-01-10T19:57:54;101470.94;;;-12.60
28803;BMP280;15949;55.656;37.422;2023-01-10T20:03:00;101476.41;;;-12.55
28803;BMP280;15949;55.656;37.422;2023-01-10T20:08:05;101467.16;;;-12.54
28803;BMP280;15949;55.656;37.422;2023-01-10T20:13:11;101465.00;;;-12.59
28803;BMP280;15949;55.656;37.422;2023-01-10T20:18:16;101461.34;;;-12.55
28803;BMP280;15949;55.656;37.422;2023-01-10T20:23:22;101467.94;;;-12.54
28803;BMP280;15949;55.656;37.422;2023-01-10T20:28:28;101470.03;;;-12.59
28803;BMP280;15949;55.656;37.422;2023-01-10T20:33:34;101459.72;;;-12.56
28803;BMP280;15949;55.656;37.422;2023-01-10T20:38:40;101459.06;;;-12.58
28803;BMP280;15949;55.656;37.422;2023-01-10T20:43:46;101464.50;;;-12.53
28803;BMP280;15949;55.656;37.422;2023-01-10T20:48:53;101456.63;;;-12.48
28803;BMP280;15949;55.656;37.422;2023-01-10T20:54:00;101466.66;;;-12.48
28803;BMP280;15949;55.656;37.422;2023-01-10T20:59:06;101452.66;;;-12.50
28803;BMP280;15949;55.656;37.422;2023-01-10T21:04:12;101451.66;;;-12.59
28803;BMP280;15949;55.656;37.422;2023-01-10T21:09:17;101455.50;;;-12.55
28803;BMP280;15949;55.656;37.422;2023-01-10T21:14:23;101464.31;;;-12.49
28803;BMP280;15949;55.656;37.422;2023-01-10T21:19:29;101461.09;;;-12.52
28803;BMP280;15949;55.656;37.422;2023-01-10T21:24:35;101452.75;;;-12.52
28803;BMP280;15949;55.656;37.422;2023-01-10T21:29:41;101447.28;;;-12.46
28803;BMP280;15949;55.656;37.422;2023-01-10T21:34:47;101454.25;;;-12.49
28803;BMP280;15949;55.656;37.422;2023-01-10T21:39:52;101452.19;;;-12.44
28803;BMP280;15949;55.656;37.422;2023-01-10T21:44:58;101459.13;;;-12.48
28803;BMP280;15949;55.656;37.422;2023-01-10T21:50:05;101454.59;;;-12.54
28803;BMP280;15949;55.656;37.422;2023-01-10T21:55:13;101457.69;;;-12.62
28803;BMP280;15949;55.656;37.422;2023-01-10T22:00:19;101453.81;;;-12.66
28803;BMP280;15949;55.656;37.422;2023-01-10T22:05:25;101463.88;;;-12.77
28803;BMP280;15949;55.656;37.422;2023-01-10T22:10:30;101455.00;;;-12.92
28803;BMP280;15949;55.656;37.422;2023-01-10T22:15:36;101462.72;;;-12.95
28803;BMP280;15949;55.656;37.422;2023-01-10T22:20:45;101457.97;;;-12.98
28803;BMP280;15949;55.656;37.422;2023-01-10T22:26:08;101452.25;;;-12.89
28803;BMP280;15949;55.656;37.422;2023-01-10T22:31:13;101437.06;;;-12.88
28803;BMP280;15949;55.656;37.422;2023-01-10T22:36:19;101427.75;;;-12.85
28803;BMP280;15949;55.656;37.422;2023-01-10T22:41:25;101441.66;;;-12.93
28803;BMP280;15949;55.656;37.422;2023-01-10T22:46:32;101433.91;;;-12.90
28803;BMP280;15949;55.656;37.422;2023-01-10T22:51:38;101457.50;;;-12.81
28803;BMP280;15949;55.656;37.422;2023-01-10T22:56:45;101446.66;;;-12.81
28803;BMP280;15949;55.656;37.422;2023-01-10T23:01:51;101440.50;;;-12.77
28803;BMP280;15949;55.656;37.422;2023-01-10T23:06:56;101454.72;;;-12.78
28803;BMP280;15949;55.656;37.422;2023-01-10T23:12:03;101465.03;;;-12.81
28803;BMP280;15949;55.656;37.422;2023-01-10T23:17:09;101451.13;;;-12.85
28803;BMP280;15949;55.656;37.422;2023-01-10T23:22:15;101456.00;;;-12.83
28803;BMP280;15949;55.656;37.422;2023-01-10T23:27:20;101442.81;;;-12.85
28803;BMP280;15949;55.656;37.422;2023-01-10T23:32:26;101444.72;;;-12.89
28803;BMP280;15949;55.656;37.422;2023-01-10T23:37:32;101453.16;;;-12.90
28803;BMP280;15949;55.656;37.422;2023-01-10T23:42:37;101451.31;;;-12.88
28803;BMP280;15949;55.656;37.422;2023-01-10T23:47:43;101430.34;;;-12.87
28803;BMP280;15949;55.656;37.422;2023-01-10T23:52:48;101415.84;;;-12.83
28803;BMP280;15949;55.656;37.422;2023-01-10T23:57:54;101412.53;;;-12.84
